Time;durP1;ratioP1;P1;durP2;ratioP2;P2;SDS_P1;SDS_P2;PMS_P1;PMS_P2;Temp;Humidity;BMP_temperature;BMP_pressure;BME280_temperature;BME280_humidity;BME280_pressure;Samples;Min_cycle;Max_cycle;Signal;HPM_P1;HPM_P2
2023/09/26 00:00:15;;;;;;;23.90;4.30;;;;;;;;;;4957249;28;20796;-36
2023/09/26 00:02:43;;;;;;;27.70;4.88;;;;;;;;;;4964031;28;20428;-36
2023/09/26 00:05:11;;;;;;;31.25;4.72;;;;;;;;;;4959424;28;20046;-36
2023/09/26 00:07:39;;;;;;;21.52;4.22;;;;;;;;;;4965028;28;20030;-36
2023/09/26 00:10:09;;;;;;;23.85;4.65;;;;;;;;;;4960583;28;20526;-35
2023/09/26 00:12:37;;;;;;;24.50;4.93;;;;;;;;;;4962515;28;20572;-36
2023/09/26 00:15:07;;;;;;;23.15;4.10;;;;;;;;;;4954677;28;20857;-36
2023/09/26 00:17:36;;;;;;;20.73;3.72;;;;;;;;;;4959784;28;20070;-36
2023/09/26 00:20:10;;;;;;;28.90;4.75;;;;;;;;;;4953911;28;20050;-35
2023/09/26 00:22:39;;;;;;;21.58;4.32;;;;;;;;;;4970045;28;20049;-36
2023/09/26 00:25:07;;;;;;;18.33;5.13;;;;;;;;;;4954678;28;20132;-36
2023/09/26 00:27:34;;;;;;;27.02;6.00;;;;;;;;;;4957446;28;20188;-35
2023/09/26 00:30:03;;;;;;;20.05;4.45;;;;;;;;;;4945856;28;21221;-36
2023/09/26 00:32:33;;;;;;;25.70;4.13;;;;;;;;;;4969097;28;20042;-35
2023/09/26 00:35:02;;;;;;;19.73;3.83;;;;;;;;;;4950750;28;20050;-36
2023/09/26 00:37:31;;;;;;;27.40;4.37;;;;;;;;;;4961400;28;20088;-36
2023/09/26 00:39:58;;;;;;;24.52;4.72;;;;;;;;;;4949489;28;20046;-36
2023/09/26 00:42:27;;;;;;;23.50;4.95;;;;;;;;;;4968892;28;20695;-36
2023/09/26 00:44:56;;;;;;;24.80;3.97;;;;;;;;;;4957627;28;20038;-36
2023/09/26 00:47:24;;;;;;;23.20;4.38;;;;;;;;;;4964648;28;20046;-36
2023/09/26 00:49:55;;;;;;;22.67;4.10;;;;;;;;;;4954075;28;20500;-36
2023/09/26 00:52:23;;;;;;;23.60;4.97;;;;;;;;;;4951472;28;20089;-37
2023/09/26 00:54:51;;;;;;;23.40;4.38;;;;;;;;;;4958403;28;20050;-36
2023/09/26 00:57:18;;;;;;;18.42;3.85;;;;;;;;;;4954909;28;20627;-36
2023/09/26 00:59:49;;;;;;;25.20;4.68;;;;;;;;;;4971584;28;20042;-36
2023/09/26 01:02:18;;;;;;;24.03;3.80;;;;;;;;;;4961657;28;20086;-36
2023/09/26 01:04:45;;;;;;;22.30;3.88;;;;;;;;;;4948834;28;20076;-35
2023/09/26 01:07:15;;;;;;;21.33;3.83;;;;;;;;;;4960240;28;20038;-36
2023/09/26 01:09:43;;;;;;;23.90;4.32;;;;;;;;;;4963968;28;20062;-36
2023/09/26 01:12:11;;;;;;;22.55;4.22;;;;;;;;;;4953118;28;20166;-36
2023/09/26 01:14:40;;;;;;;23.63;3.80;;;;;;;;;;4958771;28;20046;-36
2023/09/26 01:17:08;;;;;;;23.75;3.92;;;;;;;;;;4965917;28;20049;-38
2023/09/26 01:19:36;;;;;;;22.25;4.35;;;;;;;;;;4961299;28;20046;-36
2023/09/26 01:22:05;;;;;;;23.27;3.97;;;;;;;;;;4961957;28;20487;-35
2023/09/26 01:24:36;;;;;;;23.17;3.15;;;;;;;;;;4956892;28;20054;-36
2023/09/26 01:27:04;;;;;;;23.93;3.93;;;;;;;;;;4949430;28;20070;-36
2023/09/26 01:29:32;;;;;;;23.58;3.78;;;;;;;;;;4965753;28;20045;-36
2023/09/26 01:32:00;;;;;;;26.17;3.95;;;;;;;;;;4948102;28;20030;-36
2023/09/26 01:34:27;;;;;;;31.85;4.30;;;;;;;;;;4964124;28;20453;-36
2023/09/26 01:36:55;;;;;;;31.60;4.88;;;;;;;;;;4944661;28;20120;-36
2023/09/26 01:39:24;;;;;;;27.27;4.13;;;;;;;;;;4928602;28;20509;-36
2023/09/26 01:41:53;;;;;;;25.13;4.30;;;;;;;;;;4963566;28;20492;-36
2023/09/26 01:44:21;;;;;;;22.17;3.42;;;;;;;;;;4955711;28;20062;-35
2023/09/26 01:46:48;;;;;;;26.42;4.18;;;;;;;;;;4947822;28;20057;-38
2023/09/26 01:49:16;;;;;;;22.15;4.30;;;;;;;;;;4947053;28;20074;-36
2023/09/26 01:51:44;;;;;;;26.00;4.57;;;;;;;;;;4975305;28;20547;-36
2023/09/26 01:54:12;;;;;;;26.67;4.45;;;;;;;;;;4953400;28;20153;-36
2023/09/26 01:56:39;;;;;;;21.80;3.72;;;;;;;;;;4961607;28;20065;-36
2023/09/26 01:59:09;;;;;;;32.75;4.32;;;;;;;;;;4948235;28;20053;-36
2023/09/26 02:01:36;;;;;;;27.90;3.80;;;;;;;;;;4962216;28;20046;-36
2023/09/26 02:04:05;;;;;;;30.30;4.10;;;;;;;;;;4960608;28;20057;-36
2023/09/26 02:06:33;;;;;;;21.42;3.92;;;;;;;;;;4957348;28;20436;-36
2023/09/26 02:09:01;;;;;;;25.88;4.80;;;;;;;;;;4953031;28;20042;-36
2023/09/26 02:11:28;;;;;;;24.77;4.25;;;;;;;;;;4968664;28;20050;-37
2023/09/26 02:13:56;;;;;;;24.88;4.65;;;;;;;;;;4960142;28;20038;-35
2023/09/26 02:16:25;;;;;;;26.87;4.73;;;;;;;;;;4952195;28;20492;-36
2023/09/26 02:18:57;;;;;;;26.55;4.00;;;;;;;;;;4957721;28;20273;-36
2023/09/26 02:21:25;;;;;;;21.48;4.15;;;;;;;;;;4969269;28;20042;-36
2023/09/26 02:23:53;;;;;;;22.42;3.92;;;;;;;;;;4962730;28;20047;-36
2023/09/26 02:26:24;;;;;;;25.27;4.85;;;;;;;;;;4967502;28;20053;-36
2023/09/26 02:28:51;;;;;;;25.70;4.30;;;;;;;;;;4942640;28;20053;-35
2023/09/26 02:31:22;;;;;;;22.83;3.85;;;;;;;;;;4965583;28;20039;-36
2023/09/26 02:33:53;;;;;;;23.13;4.72;;;;;;;;;;4957806;28;20069;-36
2023/09/26 02:36:20;;;;;;;29.05;4.75;;;;;;;;;;4966975;28;20825;-36
2023/09/26 02:38:48;;;;;;;28.40;4.60;;;;;;;;;;4966821;28;20049;-40
2023/09/26 02:41:16;;;;;;;15.20;3.80;;;;;;;;;;4959939;28;20042;-35
2023/09/26 02:43:44;;;;;;;26.35;4.03;;;;;;;;;;4960504;28;20035;-36
2023/09/26 02:46:11;;;;;;;24.95;5.03;;;;;;;;;;4959425;28;20051;-36
2023/09/26 02:48:39;;;;;;;30.13;4.43;;;;;;;;;;4972734;28;20053;-36
2023/09/26 02:51:08;;;;;;;21.98;3.58;;;;;;;;;;4925997;28;22969;-35
2023/09/26 02:53:36;;;;;;;17.80;3.80;;;;;;;;;;4958426;28;20058;-36
2023/09/26 02:56:05;;;;;;;19.90;3.65;;;;;;;;;;4958676;28;20509;-36
2023/09/26 02:58:37;;;;;;;20.55;3.70;;;;;;;;;;4964605;28;20042;-36
2023/09/26 03:01:07;;;;;;;21.85;3.88;;;;;;;;;;4948560;28;20046;-35
2023/09/26 03:03:35;;;;;;;22.23;3.42;;;;;;;;;;4965182;28;20038;-36
2023/09/26 03:06:03;;;;;;;19.07;2.97;;;;;;;;;;4964162;28;20228;-36
2023/09/26 03:08:32;;;;;;;17.42;3.15;;;;;;;;;;4970328;28;20053;-36
2023/09/26 03:11:01;;;;;;;26.52;3.58;;;;;;;;;;4961221;28;20049;-36
2023/09/26 03:13:32;;;;;;;17.02;3.28;;;;;;;;;;4966780;28;20072;-36
2023/09/26 03:16:01;;;;;;;16.85;3.35;;;;;;;;;;4955769;28;20055;-36
2023/09/26 03:18:29;;;;;;;23.07;3.60;;;;;;;;;;4964386;28;20047;-35
2023/09/26 03:20:57;;;;;;;20.10;4.13;;;;;;;;;;4957260;28;20037;-36
2023/09/26 03:23:25;;;;;;;20.98;4.28;;;;;;;;;;4965896;28;20035;-36
2023/09/26 03:25:54;;;;;;;20.80;4.47;;;;;;;;;;4957617;28;20061;-36
2023/09/26 03:28:22;;;;;;;22.02;4.80;;;;;;;;;;4960088;28;20042;-35
2023/09/26 03:30:50;;;;;;;24.87;4.73;;;;;;;;;;4959533;28;20129;-36
2023/09/26 03:33:17;;;;;;;20.95;3.95;;;;;;;;;;4958249;28;20105;-36
2023/09/26 03:35:45;;;;;;;19.80;4.75;;;;;;;;;;4969615;28;20038;-36
2023/09/26 03:38:13;;;;;;;20.13;4.78;;;;;;;;;;4954618;28;20048;-36
2023/09/26 03:40:41;;;;;;;23.65;4.25;;;;;;;;;;4971050;28;20045;-36
2023/09/26 03:43:10;;;;;;;24.00;5.10;;;;;;;;;;4955886;28;20428;-36
2023/09/26 03:45:38;;;;;;;22.25;4.53;;;;;;;;;;4948140;28;20039;-36
2023/09/26 03:48:07;;;;;;;24.08;4.20;;;;;;;;;;4966206;28;20046;-36
2023/09/26 03:50:34;;;;;;;20.00;4.18;;;;;;;;;;4953559;28;20039;-36
2023/09/26 03:53:02;;;;;;;22.27;5.10;;;;;;;;;;4966981;28;20127;-36
2023/09/26 03:55:30;;;;;;;18.27;3.60;;;;;;;;;;4946004;28;20899;-36
2023/09/26 03:57:58;;;;;;;20.95;4.00;;;;;;;;;;4974960;28;20133;-36
2023/09/26 04:00:28;;;;;;;26.55;4.72;;;;;;;;;;4934574;28;20045;-35
2023/09/26 04:02:57;;;;;;;20.23;4.93;;;;;;;;;;4966258;28;20061;-36
2023/09/26 04:05:25;;;;;;;19.05;4.15;;;;;;;;;;4964238;28;20074;-35
2023/09/26 04:07:53;;;;;;;23.93;3.80;;;;;;;;;;4964317;28;20038;-36
2023/09/26 04:10:21;;;;;;;16.52;3.67;;;;;;;;;;4971184;28;20049;-36
2023/09/26 04:12:48;;;;;;;22.67;4.07;;;;;;;;;;4956397;28;20057;-41
2023/09/26 04:15:16;;;;;;;17.42;3.90;;;;;;;;;;4967811;28;20046;-36
2023/09/26 04:17:50;;;;;;;19.55;4.28;;;;;;;;;;4959074;28;20619;-36
2023/09/26 04:20:20;;;;;;;25.33;4.93;;;;;;;;;;4964195;28;20093;-36
2023/09/26 04:23:04;;;;;;;20.92;5.13;;;;;;;;;;4964360;28;20333;-36
2023/09/26 04:25:34;;;;;;;24.73;4.78;;;;;;;;;;4962482;28;20129;-36
2023/09/26 04:28:03;;;;;;;26.20;3.80;;;;;;;;;;4969722;28;20512;-36
2023/09/26 04:30:31;;;;;;;27.30;5.07;;;;;;;;;;4956770;28;20038;-35
2023/09/26 04:33:00;;;;;;;24.57;5.20;;;;;;;;;;4968069;28;20042;-36
2023/09/26 04:35:28;;;;;;;18.48;3.97;;;;;;;;;;4947847;28;20687;-35
2023/09/26 04:37:55;;;;;;;28.38;4.25;;;;;;;;;;4952556;28;20089;-36
2023/09/26 04:40:23;;;;;;;17.15;4.10;;;;;;;;;;4973059;28;20126;-36
2023/09/26 04:42:52;;;;;;;19.50;4.80;;;;;;;;;;4958157;28;20113;-36
2023/09/26 04:45:19;;;;;;;15.80;3.80;;;;;;;;;;4954404;28;20683;-36
2023/09/26 04:47:47;;;;;;;20.15;3.60;;;;;;;;;;4961971;28;20504;-36
2023/09/26 04:50:16;;;;;;;23.40;4.25;;;;;;;;;;4963298;28;20609;-35
2023/09/26 04:52:44;;;;;;;21.20;4.00;;;;;;;;;;4952775;28;20038;-36
2023/09/26 04:55:13;;;;;;;22.17;3.75;;;;;;;;;;4963509;28;20073;-36
2023/09/26 04:57:42;;;;;;;19.97;4.40;;;;;;;;;;4964932;28;20052;-35
2023/09/26 05:00:10;;;;;;;21.75;4.47;;;;;;;;;;4952447;28;20404;-36
2023/09/26 05:02:38;;;;;;;23.52;4.60;;;;;;;;;;4955535;28;20963;-36
2023/09/26 05:05:06;;;;;;;25.23;4.88;;;;;;;;;;4962384;28;20074;-36
2023/09/26 05:07:35;;;;;;;20.20;4.05;;;;;;;;;;4958533;28;20039;-36
2023/09/26 05:10:03;;;;;;;23.50;4.10;;;;;;;;;;4962461;28;20053;-36
2023/09/26 05:12:31;;;;;;;21.98;4.15;;;;;;;;;;4957637;28;20046;-36
2023/09/26 05:14:59;;;;;;;18.13;4.55;;;;;;;;;;4962419;28;20265;-36
2023/09/26 05:17:27;;;;;;;19.65;3.50;;;;;;;;;;4950802;28;20042;-36
2023/09/26 05:19:55;;;;;;;18.35;4.03;;;;;;;;;;4966359;28;20050;-36
2023/09/26 05:22:23;;;;;;;18.83;4.17;;;;;;;;;;4953748;28;20038;-36
2023/09/26 05:24:53;;;;;;;23.35;4.07;;;;;;;;;;4964061;28;20042;-37
2023/09/26 05:27:25;;;;;;;21.83;4.53;;;;;;;;;;4965924;28;20487;-36
2023/09/26 05:29:52;;;;;;;20.55;4.38;;;;;;;;;;4959536;28;20050;-36
2023/09/26 05:32:20;;;;;;;16.58;3.45;;;;;;;;;;4956341;28;20054;-36
2023/09/26 05:34:48;;;;;;;19.83;3.73;;;;;;;;;;4953024;28;20110;-36
2023/09/26 05:37:15;;;;;;;15.15;3.20;;;;;;;;;;4960795;28;20492;-36
2023/09/26 05:39:43;;;;;;;19.60;4.07;;;;;;;;;;4952463;28;20320;-36
2023/09/26 05:42:13;;;;;;;18.33;3.58;;;;;;;;;;4950477;28;20039;-36
2023/09/26 05:44:41;;;;;;;17.42;3.88;;;;;;;;;;4954126;28;20045;-36
2023/09/26 05:47:09;;;;;;;19.17;4.00;;;;;;;;;;4950266;28;21192;-37
2023/09/26 05:49:37;;;;;;;14.77;3.63;;;;;;;;;;4964760;28;20409;-36
2023/09/26 05:52:04;;;;;;;16.85;4.03;;;;;;;;;;4953993;28;20373;-36
2023/09/26 05:54:33;;;;;;;13.30;4.05;;;;;;;;;;4967830;28;20074;-36
2023/09/26 05:57:03;;;;;;;19.13;4.15;;;;;;;;;;4958802;28;20042;-36
2023/09/26 05:59:32;;;;;;;15.50;4.50;;;;;;;;;;4961590;28;20054;-37
2023/09/26 06:02:00;;;;;;;17.40;4.95;;;;;;;;;;4953977;28;20053;-36
2023/09/26 06:04:28;;;;;;;19.45;5.80;;;;;;;;;;4963588;28;20062;-36
2023/09/26 06:06:56;;;;;;;24.17;6.65;;;;;;;;;;4958315;28;20124;-36
2023/09/26 06:09:24;;;;;;;21.98;6.05;;;;;;;;;;4955176;28;20097;-36
2023/09/26 06:11:52;;;;;;;15.97;6.43;;;;;;;;;;4949858;28;20046;-36
2023/09/26 06:14:20;;;;;;;16.40;6.30;;;;;;;;;;4963509;28;20053;-36
2023/09/26 06:16:49;;;;;;;25.60;8.10;;;;;;;;;;4949568;28;20053;-36
2023/09/26 06:19:21;;;;;;;23.65;7.82;;;;;;;;;;4954448;28;20058;-36
2023/09/26 06:21:49;;;;;;;25.55;8.70;;;;;;;;;;4953600;28;20046;-36
2023/09/26 06:24:16;;;;;;;27.73;10.23;;;;;;;;;;4962237;28;20038;-36
2023/09/26 06:26:44;;;;;;;28.45;10.38;;;;;;;;;;4950785;28;20042;-36
2023/09/26 06:29:13;;;;;;;25.88;10.90;;;;;;;;;;4967780;28;20562;-36
2023/09/26 06:31:42;;;;;;;32.50;12.07;;;;;;;;;;4945334;28;20038;-36
2023/09/26 06:34:11;;;;;;;30.65;11.55;;;;;;;;;;4959767;28;20042;-36
2023/09/26 06:36:39;;;;;;;38.00;11.90;;;;;;;;;;4943887;28;20484;-36
2023/09/26 06:39:09;;;;;;;33.22;12.13;;;;;;;;;;4966802;28;20056;-36
2023/09/26 06:41:36;;;;;;;32.38;12.75;;;;;;;;;;4962360;28;20034;-36
2023/09/26 06:44:05;;;;;;;32.85;12.82;;;;;;;;;;4959704;28;20050;-36
2023/09/26 06:46:32;;;;;;;36.47;14.02;;;;;;;;;;4956889;28;20046;-36
2023/09/26 06:49:00;;;;;;;34.70;13.20;;;;;;;;;;4958020;28;20072;-36
2023/09/26 06:51:30;;;;;;;31.25;13.88;;;;;;;;;;4960593;28;20089;-36
2023/09/26 06:53:57;;;;;;;39.60;14.13;;;;;;;;;;4943076;28;20038;-36
2023/09/26 06:56:25;;;;;;;34.55;14.57;;;;;;;;;;4961767;28;20485;-36
2023/09/26 06:58:54;;;;;;;36.25;14.18;;;;;;;;;;4964669;28;20046;-36
2023/09/26 07:01:27;;;;;;;35.97;14.43;;;;;;;;;;4959246;28;20085;-36
2023/09/26 07:03:54;;;;;;;42.08;13.85;;;;;;;;;;4957847;28;20065;-36
2023/09/26 07:06:22;;;;;;;34.97;14.10;;;;;;;;;;4952697;28;20054;-36
2023/09/26 07:08:55;;;;;;;35.83;13.90;;;;;;;;;;4946985;28;20046;-35
2023/09/26 07:11:23;;;;;;;37.65;13.35;;;;;;;;;;4965718;28;20742;-36
2023/09/26 07:13:50;;;;;;;33.60;13.37;;;;;;;;;;4954066;28;20379;-36
2023/09/26 07:16:18;;;;;;;34.55;12.60;;;;;;;;;;4958196;28;20451;-36
2023/09/26 07:18:46;;;;;;;36.58;12.25;;;;;;;;;;4949172;28;20145;-36
2023/09/26 07:21:14;;;;;;;27.88;11.32;;;;;;;;;;4956840;28;20050;-36
2023/09/26 07:23:41;;;;;;;35.33;10.95;;;;;;;;;;4956864;28;20039;-36
2023/09/26 07:26:12;;;;;;;29.03;9.40;;;;;;;;;;4957615;28;20035;-35
2023/09/26 07:28:43;;;;;;;29.77;9.00;;;;;;;;;;4961894;28;20061;-36
2023/09/26 07:31:11;;;;;;;26.83;8.45;;;;;;;;;;4951540;28;20485;-36
2023/09/26 07:33:41;;;;;;;22.15;7.53;;;;;;;;;;4964065;28;20038;-36
2023/09/26 07:36:10;;;;;;;24.25;7.88;;;;;;;;;;4948113;28;20453;-39
2023/09/26 07:38:37;;;;;;;21.93;6.37;;;;;;;;;;4963906;28;20054;-36
2023/09/26 07:41:05;;;;;;;14.75;5.82;;;;;;;;;;4947539;28;20046;-36
2023/09/26 07:43:34;;;;;;;18.27;6.18;;;;;;;;;;4967719;28;20089;-36
2023/09/26 07:46:06;;;;;;;19.88;6.10;;;;;;;;;;4949765;28;20051;-35
2023/09/26 07:48:34;;;;;;;18.38;5.50;;;;;;;;;;4929807;28;20038;-36
2023/09/26 07:51:02;;;;;;;11.77;3.30;;;;;;;;;;4960126;28;20089;-36
2023/09/26 07:53:30;;;;;;;7.50;1.83;;;;;;;;;;4959933;28;20050;-36
2023/09/26 07:55:57;;;;;;;21.52;2.70;;;;;;;;;;4951923;28;20058;-36
2023/09/26 07:58:25;;;;;;;8.40;1.48;;;;;;;;;;4959557;28;20696;-36
2023/09/26 08:00:55;;;;;;;10.65;1.67;;;;;;;;;;4922471;28;20116;-36
2023/09/26 08:03:23;;;;;;;7.17;1.20;;;;;;;;;;4973155;28;20034;-36
2023/09/26 08:05:50;;;;;;;6.72;1.45;;;;;;;;;;4952545;28;20048;-36
2023/09/26 08:08:18;;;;;;;5.82;1.50;;;;;;;;;;4621977;28;9999869;-35
2023/09/26 08:10:48;;;;;;;6.13;0.80;;;;;;;;;;4943214;28;20061;-36
2023/09/26 08:13:15;;;;;;;5.95;0.85;;;;;;;;;;4961391;28;20412;-36
2023/09/26 08:15:44;;;;;;;5.07;1.20;;;;;;;;;;4950776;28;20049;-37
2023/09/26 08:18:13;;;;;;;4.60;1.08;;;;;;;;;;4965117;28;20492;-36
2023/09/26 08:20:40;;;;;;;5.05;0.77;;;;;;;;;;4931127;28;20061;-36
2023/09/26 08:23:09;;;;;;;4.15;0.57;;;;;;;;;;4618150;28;10000387;-37
2023/09/26 08:25:38;;;;;;;6.23;0.87;;;;;;;;;;4903916;28;20057;-36
2023/09/26 08:28:06;;;;;;;4.60;0.90;;;;;;;;;;4941152;28;20526;-36
2023/09/26 08:30:34;;;;;;;7.00;1.10;;;;;;;;;;4953360;28;20050;-36
2023/09/26 08:33:02;;;;;;;5.38;1.17;;;;;;;;;;4937977;28;20042;-37
2023/09/26 08:35:35;;;;;;;4.53;1.00;;;;;;;;;;4913419;28;20046;-36
2023/09/26 08:38:03;;;;;;;5.00;0.97;;;;;;;;;;4940995;28;20378;-36
2023/09/26 08:40:31;;;;;;;4.30;1.17;;;;;;;;;;4940656;28;20538;-37
2023/09/26 08:42:59;;;;;;;4.22;1.10;;;;;;;;;;4942872;28;20034;-37
2023/09/26 08:45:27;;;;;;;4.45;1.00;;;;;;;;;;4931354;28;20049;-36
2023/09/26 08:47:58;;;;;;;5.72;1.00;;;;;;;;;;4941234;28;21902;-37
2023/09/26 08:50:26;;;;;;;6.00;0.90;;;;;;;;;;4936616;28;20038;-36
2023/09/26 08:52:58;;;;;;;4.43;0.85;;;;;;;;;;4932865;28;20038;-36
2023/09/26 08:55:27;;;;;;;5.97;0.77;;;;;;;;;;4928988;28;20050;-37
2023/09/26 08:57:56;;;;;;;4.13;0.90;;;;;;;;;;4948516;28;20944;-37
2023/09/26 09:00:25;;;;;;;5.68;0.80;;;;;;;;;;4936123;28;20060;-36
2023/09/26 09:02:53;;;;;;;5.37;1.07;;;;;;;;;;4947540;28;20050;-37
2023/09/26 09:05:23;;;;;;;5.20;0.90;;;;;;;;;;4926151;28;20236;-37
2023/09/26 09:07:51;;;;;;;4.03;1.10;;;;;;;;;;4942912;28;20046;-37
2023/09/26 09:10:21;;;;;;;6.50;1.13;;;;;;;;;;4924134;28;20053;-36
2023/09/26 09:12:50;;;;;;;5.97;1.10;;;;;;;;;;4963338;28;20580;-37
2023/09/26 09:15:22;;;;;;;6.67;1.30;;;;;;;;;;4936963;28;20046;-36
2023/09/26 09:17:51;;;;;;;4.00;1.00;;;;;;;;;;4962329;28;20099;-37
2023/09/26 09:20:28;;;;;;;4.35;0.98;;;;;;;;;;4952764;28;20058;-37
2023/09/26 09:23:16;;;;;;;5.63;0.80;;;;;;;;;;4963050;28;20049;-37
2023/09/26 09:25:45;;;;;;;4.80;0.80;;;;;;;;;;4960912;28;20672;-37
2023/09/26 09:28:18;;;;;;;5.10;1.00;;;;;;;;;;4962392;28;20511;-37
2023/09/26 09:30:46;;;;;;;6.15;1.08;;;;;;;;;;4956669;28;20121;-37
2023/09/26 09:33:14;;;;;;;4.75;1.13;;;;;;;;;;4948257;28;20049;-37
2023/09/26 09:35:42;;;;;;;4.53;1.00;;;;;;;;;;4957530;28;20088;-36
2023/09/26 09:38:12;;;;;;;5.57;0.73;;;;;;;;;;4945124;28;20034;-37
2023/09/26 09:40:41;;;;;;;6.03;0.90;;;;;;;;;;4960516;28;20484;-36
2023/09/26 09:43:10;;;;;;;6.10;1.48;;;;;;;;;;4955250;28;20053;-40
2023/09/26 09:45:38;;;;;;;4.95;1.40;;;;;;;;;;4957171;28;20046;-36
2023/09/26 09:48:09;;;;;;;7.50;1.52;;;;;;;;;;4953988;28;20046;-36
2023/09/26 09:50:37;;;;;;;5.53;1.75;;;;;;;;;;4947389;28;20500;-36
2023/09/26 09:53:05;;;;;;;5.23;1.00;;;;;;;;;;4963977;28;20049;-36
2023/09/26 09:55:37;;;;;;;6.72;1.30;;;;;;;;;;4941407;28;20042;-36
2023/09/26 09:58:09;;;;;;;6.32;1.60;;;;;;;;;;4968596;28;20363;-37
2023/09/26 10:00:41;;;;;;;5.28;1.25;;;;;;;;;;4949988;28;20141;-37
2023/09/26 10:03:10;;;;;;;6.22;1.80;;;;;;;;;;4963347;28;20046;-36
2023/09/26 10:05:39;;;;;;;6.10;1.30;;;;;;;;;;4944428;28;20045;-36
2023/09/26 10:08:11;;;;;;;6.05;1.95;;;;;;;;;;4966305;28;20551;-37
2023/09/26 10:10:40;;;;;;;7.00;1.42;;;;;;;;;;4938333;28;20046;-36
2023/09/26 10:13:08;;;;;;;6.40;1.90;;;;;;;;;;4958556;28;20041;-36
2023/09/26 10:16:07;;;;;;;7.55;1.77;;;;;;;;;;4954495;28;20471;-36
2023/09/26 10:18:39;;;;;;;10.30;1.50;;;;;;;;;;4948421;28;20060;-36
2023/09/26 10:21:19;;;;;;;6.07;1.40;;;;;;;;;;4962429;28;20065;-36
2023/09/26 10:24:02;;;;;;;6.85;1.40;;;;;;;;;;4604407;28;10000486;-36
2023/09/26 10:26:30;;;;;;;7.03;1.40;;;;;;;;;;4950885;28;20519;-36
2023/09/26 10:29:01;;;;;;;9.30;1.80;;;;;;;;;;4954571;28;20053;-36
2023/09/26 10:31:31;;;;;;;7.60;1.73;;;;;;;;;;4941386;28;20873;-37
2023/09/26 10:33:59;;;;;;;6.38;1.20;;;;;;;;;;4942928;28;20043;-36
2023/09/26 10:36:26;;;;;;;6.90;1.73;;;;;;;;;;4954921;28;20038;-36
2023/09/26 10:38:59;;;;;;;6.88;1.50;;;;;;;;;;4943229;28;20042;-36
2023/09/26 10:41:27;;;;;;;6.83;1.60;;;;;;;;;;4960336;28;20129;-36
2023/09/26 10:43:55;;;;;;;6.20;1.75;;;;;;;;;;4921797;28;20034;-36
2023/09/26 10:46:26;;;;;;;8.43;1.80;;;;;;;;;;4938592;28;20046;-36
2023/09/26 10:48:58;;;;;;;7.93;2.00;;;;;;;;;;4931833;28;20038;-36
2023/09/26 10:51:32;;;;;;;6.82;1.35;;;;;;;;;;4947965;28;20070;-37
2023/09/26 10:54:00;;;;;;;8.70;1.90;;;;;;;;;;4914337;28;20556;-37
2023/09/26 10:56:29;;;;;;;6.82;1.75;;;;;;;;;;4920387;28;20078;-37
2023/09/26 10:58:57;;;;;;;10.05;1.80;;;;;;;;;;4943444;28;20488;-37
2023/09/26 11:01:37;;;;;;;7.50;1.77;;;;;;;;;;4944265;28;20612;-37
2023/09/26 11:04:08;;;;;;;6.78;1.45;;;;;;;;;;4935669;28;20057;-36
2023/09/26 11:06:38;;;;;;;7.53;2.30;;;;;;;;;;4923107;28;20054;-37
2023/09/26 11:09:07;;;;;;;8.40;1.92;;;;;;;;;;4935395;28;20428;-36
2023/09/26 11:11:35;;;;;;;8.07;1.50;;;;;;;;;;4943435;28;20519;-36
2023/09/26 11:14:04;;;;;;;7.03;1.50;;;;;;;;;;4910142;28;20051;-36
2023/09/26 11:16:33;;;;;;;9.70;2.10;;;;;;;;;;4946356;28;20047;-36
2023/09/26 11:19:01;;;;;;;6.63;1.80;;;;;;;;;;4938749;28;20058;-36
2023/09/26 11:21:31;;;;;;;6.68;1.50;;;;;;;;;;4941322;28;20050;-37
2023/09/26 11:23:59;;;;;;;6.93;1.98;;;;;;;;;;4939170;28;20129;-36
2023/09/26 11:26:27;;;;;;;8.40;1.75;;;;;;;;;;4934606;28;20504;-37
2023/09/26 11:28:55;;;;;;;6.55;1.80;;;;;;;;;;4929834;28;20047;-37
2023/09/26 11:31:24;;;;;;;9.37;1.80;;;;;;;;;;4946657;28;21303;-37
2023/09/26 11:33:51;;;;;;;6.35;1.67;;;;;;;;;;4929854;28;20050;-36
2023/09/26 11:36:19;;;;;;;7.15;1.55;;;;;;;;;;4940614;28;20085;-36
2023/09/26 11:38:49;;;;;;;7.63;1.55;;;;;;;;;;4942421;28;20046;-37
2023/09/26 11:41:20;;;;;;;9.07;2.10;;;;;;;;;;4945088;28;20050;-37
2023/09/26 11:43:55;;;;;;;9.93;2.10;;;;;;;;;;4942904;28;20046;-36
2023/09/26 11:46:24;;;;;;;8.82;2.33;;;;;;;;;;4939299;28;20050;-36
2023/09/26 11:48:52;;;;;;;10.18;1.63;;;;;;;;;;4943607;28;20050;-36
2023/09/26 11:51:20;;;;;;;8.13;1.70;;;;;;;;;;4944304;28;20046;-37
2023/09/26 11:53:48;;;;;;;8.10;2.15;;;;;;;;;;4932822;28;20049;-36
2023/09/26 11:56:16;;;;;;;7.03;1.50;;;;;;;;;;4943234;28;20496;-37
2023/09/26 11:58:45;;;;;;;5.55;1.25;;;;;;;;;;4940104;28;20959;-37
2023/09/26 12:01:13;;;;;;;10.30;2.40;;;;;;;;;;4946457;28;20050;-37
2023/09/26 12:03:42;;;;;;;9.38;1.38;;;;;;;;;;4942690;28;20053;-36
2023/09/26 12:06:11;;;;;;;7.55;1.83;;;;;;;;;;4940579;28;20157;-37
2023/09/26 12:08:44;;;;;;;8.37;1.30;;;;;;;;;;4946372;28;20050;-38
2023/09/26 12:11:18;;;;;;;9.13;2.50;;;;;;;;;;4956097;28;20050;-36
2023/09/26 12:13:46;;;;;;;6.72;1.50;;;;;;;;;;4936477;28;20515;-37
2023/09/26 12:16:14;;;;;;;7.72;1.50;;;;;;;;;;4943076;28;20513;-37
2023/09/26 12:18:41;;;;;;;8.00;1.95;;;;;;;;;;4941182;28;20046;-36
2023/09/26 12:21:10;;;;;;;8.97;1.93;;;;;;;;;;4938451;28;20463;-37
2023/09/26 12:23:38;;;;;;;8.80;1.90;;;;;;;;;;4933033;28;20042;-37
2023/09/26 12:26:06;;;;;;;7.88;2.28;;;;;;;;;;4927095;28;20963;-37
2023/09/26 12:28:36;;;;;;;7.88;2.22;;;;;;;;;;4950682;28;20141;-36
2023/09/26 12:31:04;;;;;;;7.05;2.25;;;;;;;;;;4902378;28;20543;-37
2023/09/26 12:33:31;;;;;;;10.23;2.10;;;;;;;;;;4938852;28;20034;-36
2023/09/26 12:36:00;;;;;;;8.77;1.80;;;;;;;;;;4940150;28;20050;-37
2023/09/26 12:38:28;;;;;;;6.55;1.98;;;;;;;;;;4941655;28;20053;-36
2023/09/26 12:40:56;;;;;;;7.22;2.00;;;;;;;;;;4943755;28;20042;-38
2023/09/26 12:43:23;;;;;;;8.73;2.30;;;;;;;;;;4934448;28;20496;-37
2023/09/26 12:45:53;;;;;;;9.80;2.10;;;;;;;;;;4933236;28;20042;-39
2023/09/26 12:48:20;;;;;;;7.97;1.98;;;;;;;;;;4950346;28;20030;-37
2023/09/26 12:50:48;;;;;;;10.27;1.98;;;;;;;;;;4941466;28;20042;-38
2023/09/26 12:53:16;;;;;;;14.05;2.67;;;;;;;;;;4941077;28;20129;-37
2023/09/26 12:55:43;;;;;;;8.55;2.08;;;;;;;;;;4935905;28;20046;-37
2023/09/26 12:58:12;;;;;;;7.20;2.10;;;;;;;;;;4932063;28;20092;-37
2023/09/26 13:00:40;;;;;;;8.70;1.90;;;;;;;;;;4947758;28;20038;-37
2023/09/26 13:03:08;;;;;;;9.88;1.90;;;;;;;;;;4943507;28;20070;-37
2023/09/26 13:05:36;;;;;;;9.13;1.90;;;;;;;;;;4927036;28;20064;-38
2023/09/26 13:08:06;;;;;;;8.13;1.63;;;;;;;;;;4942102;28;20133;-37
2023/09/26 13:10:36;;;;;;;10.57;2.00;;;;;;;;;;4935308;28;21769;-37
2023/09/26 13:13:05;;;;;;;10.02;2.03;;;;;;;;;;4943787;28;20054;-37
2023/09/26 13:15:33;;;;;;;8.70;1.98;;;;;;;;;;4919602;28;20054;-37
2023/09/26 13:18:01;;;;;;;7.60;1.90;;;;;;;;;;4946998;28;20113;-38
2023/09/26 13:20:30;;;;;;;10.75;2.40;;;;;;;;;;4929082;28;20109;-37
2023/09/26 13:22:58;;;;;;;9.53;1.93;;;;;;;;;;4942216;28;20050;-37
2023/09/26 13:25:25;;;;;;;9.55;2.40;;;;;;;;;;4919450;28;21251;-38
2023/09/26 13:27:53;;;;;;;9.90;2.00;;;;;;;;;;4946236;28;20042;-37
2023/09/26 13:30:21;;;;;;;8.38;2.10;;;;;;;;;;4934782;28;20049;-37
2023/09/26 13:32:49;;;;;;;10.95;2.05;;;;;;;;;;4941437;28;20046;-37
2023/09/26 13:35:17;;;;;;;8.90;2.20;;;;;;;;;;4916212;28;20132;-37
2023/09/26 13:37:47;;;;;;;8.10;1.85;;;;;;;;;;4930302;28;20046;-37
2023/09/26 13:40:15;;;;;;;8.73;2.63;;;;;;;;;;4952044;28;20038;-36
2023/09/26 13:42:42;;;;;;;10.65;2.47;;;;;;;;;;4938765;28;20058;-37
2023/09/26 13:45:12;;;;;;;9.50;2.40;;;;;;;;;;4924549;28;20054;-37
2023/09/26 13:47:39;;;;;;;8.77;2.10;;;;;;;;;;4938475;28;20381;-37
2023/09/26 13:50:07;;;;;;;8.60;2.00;;;;;;;;;;4934564;28;20108;-36
2023/09/26 13:52:35;;;;;;;8.43;1.92;;;;;;;;;;4944394;28;20998;-37
2023/09/26 13:55:06;;;;;;;9.75;1.80;;;;;;;;;;4924317;28;20149;-37
2023/09/26 13:57:34;;;;;;;12.35;2.88;;;;;;;;;;4929011;28;20078;-37
2023/09/26 14:00:05;;;;;;;12.40;3.07;;;;;;;;;;4926834;28;20192;-37
2023/09/26 14:02:33;;;;;;;9.70;2.30;;;;;;;;;;4939030;28;20423;-36
2023/09/26 14:05:03;;;;;;;10.15;2.65;;;;;;;;;;4921599;28;20050;-36
2023/09/26 14:07:36;;;;;;;9.30;1.90;;;;;;;;;;4944535;28;20132;-36
2023/09/26 14:10:06;;;;;;;10.75;2.42;;;;;;;;;;4905318;28;20320;-36
2023/09/26 14:12:33;;;;;;;9.57;2.80;;;;;;;;;;4943663;28;20046;-36
2023/09/26 14:15:01;;;;;;;10.80;2.42;;;;;;;;;;4919660;28;20064;-36
2023/09/26 14:17:29;;;;;;;8.68;2.90;;;;;;;;;;4936914;28;20118;-36
2023/09/26 14:20:01;;;;;;;9.90;2.17;;;;;;;;;;4925162;28;20065;-36
2023/09/26 14:22:31;;;;;;;12.05;1.90;;;;;;;;;;4941616;28;20057;-39
2023/09/26 14:24:59;;;;;;;7.40;1.70;;;;;;;;;;4926382;28;20070;-36
2023/09/26 14:27:28;;;;;;;12.60;2.33;;;;;;;;;;4929988;28;20088;-36
2023/09/26 14:30:02;;;;;;;11.05;2.10;;;;;;;;;;4946305;28;20038;-36
2023/09/26 14:32:30;;;;;;;12.13;2.22;;;;;;;;;;4938076;28;20053;-37
2023/09/26 14:34:58;;;;;;;10.45;2.13;;;;;;;;;;4924584;28;20129;-37
2023/09/26 14:37:25;;;;;;;8.97;2.47;;;;;;;;;;4925877;28;20038;-37
2023/09/26 14:39:53;;;;;;;11.13;2.33;;;;;;;;;;4935276;28;20045;-36
2023/09/26 14:42:21;;;;;;;10.18;2.03;;;;;;;;;;4937799;28;20050;-37